Troy Mills, IA (52344)

9:25 AM CDT on June 03, 2015 (GMT -0500)
Rural wooded area | | Change Station
CLOSE
Current Station
Personal Weather Station
Location: Central City, IA
Elevation: 961 ft
Nearby Weather Stations

Elev 961 ft 42.23 °N, 91.53 °W | Updated 1 second ago

Partly Cloudy
Partly Cloudy
69.1 °F
Feels Like 69.1 °F
N
1.1
Wind Variable Wind from NE
Gusts 4.7 mph

Today
High -- | Low -- °F
--% Chance of Precip.
Yesterday
High -- | Low -- °F
Precip. -- in
5:31 AM 8:38 PM
Full, 99% visible
Pressure 29.99 in
Visibility 10.0 miles
Clouds Clear
Dew Point 60 °F
Humidity 74%
Rainfall 0.00 in
Snow Depth Not available.
UV 5 out of 12
Pollen 7.80 out of 12
Air Quality Not available.
Flu Activity No Activity
METAR KVTI 031415Z AUTO 17008KT 10SM CLR 20/14 A2999 RMK AO2 T02000141

More Conditions Fewer Conditions

Pressure 29.99 in
Visibility 10.0 miles
Clouds Clear
Dew Point 60 °F
Humidity 74%
Rainfall 0.00 in
Snow Depth Not available.
UV 5 out of 12
Pollen 7.80 out of 12
Air Quality Not available.
Flu Activity No Activity
METAR KVTI 031415Z AUTO 17008KT 10SM CLR 20/14 A2999 RMK AO2 T02000141

More Conditions Fewer Conditions

10-Day Weather Forecast

×

Almanac

Astronomy

Jun. 03, 2015 Rise Set
Actual Time
Civil Twilight
Nautical Twilight
Astronomical Twilight
Moon
Length of Visible Light
Length of Day
Tomorrow will be .
, % of the Moon is Illuminated

Today's Extremes

State Highs State Lows

Community

WunderPhotos

Upload Photos

1,826,229 photos uploaded!

WunderBlogs® & News

Nearby

Air Quality

  Air Quality AQ Index Pollutant
Not available.

Snow Depth

Station Depth Elevation

Earthquake Activity

City Distance Mag. Time & Date
Minimum magnitude displayed is 2.5.

Coastal Water Temperatures

Place Temperature

Stations

Nearby Weather Stations

Station Location Temp. Windchill Dew Point Humidity Wind Precip. Elev Updated Type